createdAt,value
2022-12-08T00:02:22.712Z,98216.92
2022-12-08T00:05:14.119Z,98216.67
2022-12-08T00:08:03.066Z,98218.09
2022-12-08T00:10:49.050Z,98217.88
2022-12-08T00:13:21.627Z,98217.44
2022-12-08T00:15:53.144Z,98216.60
2022-12-08T00:18:24.611Z,98219.60
2022-12-08T00:20:58.645Z,98220.92
2022-12-08T00:23:30.441Z,98223.07
2022-12-08T00:26:06.055Z,98221.45
2022-12-08T00:28:37.940Z,98228.58
2022-12-08T00:31:13.934Z,98229.52
2022-12-08T00:33:45.688Z,98233.24
2022-12-08T00:36:17.430Z,98234.00
2022-12-08T00:38:49.121Z,98237.70
2022-12-08T00:41:43.245Z,98237.15
2022-12-08T00:44:14.144Z,98235.86
2022-12-08T00:46:46.139Z,98236.48
2022-12-08T00:49:18.327Z,98243.54
2022-12-08T00:51:49.838Z,98247.73
2022-12-08T00:54:23.327Z,98253.64
2022-12-08T00:56:54.921Z,98251.30
2022-12-08T00:59:26.411Z,98255.18
2022-12-08T01:01:58.007Z,98264.98
2022-12-08T01:04:29.507Z,98268.65
2022-12-08T01:07:00.983Z,98268.07
2022-12-08T01:09:32.626Z,98265.70
2022-12-08T01:12:04.216Z,98265.90
2022-12-08T01:14:35.751Z,98267.18
2022-12-08T01:17:07.294Z,98268.41
2022-12-08T01:19:39.681Z,98274.56
2022-12-08T01:22:11.323Z,98274.15
2022-12-08T01:24:43.041Z,98276.14
2022-12-08T01:27:16.264Z,98271.69
2022-12-08T01:29:47.744Z,98274.13
2022-12-08T01:32:19.241Z,98271.86
2022-12-08T01:34:50.728Z,98271.43
2022-12-08T01:37:22.233Z,98267.40
2022-12-08T01:39:53.729Z,98268.52
2022-12-08T01:42:26.479Z,98261.63
2022-12-08T01:45:03.607Z,98262.45
2022-12-08T01:47:41.405Z,98260.90
2022-12-08T01:50:15.564Z,98258.14
2022-12-08T01:52:51.763Z,98257.83
2022-12-08T01:55:27.665Z,98252.95
2022-12-08T01:58:04.079Z,98260.83
2022-12-08T02:00:35.530Z,98255.00
2022-12-08T02:03:12.169Z,98256.82
2022-12-08T02:05:44.955Z,98255.13
2022-12-08T02:08:17.508Z,98250.70
2022-12-08T02:10:53.046Z,98253.83
2022-12-08T02:13:26.454Z,98253.73
2022-12-08T02:16:05.068Z,98256.39
2022-12-08T02:19:28.615Z,98259.64
2022-12-08T02:21:52.485Z,98256.27
2022-12-08T02:24:33.020Z,98253.24
2022-12-08T02:27:20.790Z,98253.98
2022-12-08T02:30:09.440Z,98250.48
2022-12-08T02:33:21.011Z,98255.52
2022-12-08T02:36:00.925Z,98256.47
2022-12-08T02:38:43.080Z,98255.37
2022-12-08T02:41:24.934Z,98251.00
2022-12-08T02:44:02.517Z,98251.86
2022-12-08T02:46:39.340Z,98251.36
2022-12-08T02:49:10.973Z,98251.50
2022-12-08T02:51:42.467Z,98248.04
2022-12-08T02:54:15.500Z,98252.89
2022-12-08T02:57:13.597Z,98247.09
2022-12-08T03:00:02.832Z,98252.67
2022-12-08T03:02:46.237Z,98255.31
2022-12-08T03:05:35.282Z,98258.42
2022-12-08T03:08:15.943Z,98256.98
2022-12-08T03:10:53.109Z,98256.83
2022-12-08T03:13:31.038Z,98255.05
2022-12-08T03:16:06.469Z,98253.95
2022-12-08T03:18:44.127Z,98253.29
2022-12-08T03:21:19.128Z,98249.23
2022-12-08T03:23:54.460Z,98247.38
2022-12-08T03:26:30.444Z,98248.05
2022-12-08T03:29:02.175Z,98250.52
2022-12-08T03:31:40.747Z,98249.09
2022-12-08T03:34:15.098Z,98251.69
2022-12-08T03:36:47.709Z,98251.64
2022-12-08T03:39:19.605Z,98249.11
2022-12-08T03:41:51.133Z,98247.29
2022-12-08T03:44:22.636Z,98247.67
2022-12-08T03:46:54.165Z,98242.17
2022-12-08T03:49:25.702Z,98241.68
2022-12-08T03:51:57.176Z,98234.70
2022-12-08T03:54:28.824Z,98247.41
2022-12-08T03:57:00.347Z,98246.17
2022-12-08T03:59:31.867Z,98244.83
2022-12-08T04:02:03.435Z,98249.13
2022-12-08T04:04:35.003Z,98247.09
2022-12-08T04:07:06.498Z,98242.60
2022-12-08T04:09:38.992Z,98245.05
2022-12-08T04:12:11.079Z,98240.54
2022-12-08T04:14:42.722Z,98244.98
2022-12-08T04:17:14.211Z,98248.35
2022-12-08T04:19:45.828Z,98246.49
2022-12-08T04:22:17.447Z,98244.36
2022-12-08T04:24:48.973Z,98234.66
2022-12-08T04:27:20.468Z,98236.90
2022-12-08T04:29:51.976Z,98240.98
2022-12-08T04:32:23.448Z,98243.52
2022-12-08T04:34:54.960Z,98241.30
2022-12-08T04:37:26.499Z,98242.39
2022-12-08T04:39:58.016Z,98244.81
2022-12-08T04:42:29.540Z,98241.11
2022-12-08T04:45:01.225Z,98233.13
2022-12-08T04:47:33.054Z,98235.38
2022-12-08T04:50:05.398Z,98230.69
2022-12-08T04:52:37.877Z,98227.84
2022-12-08T04:55:11.084Z,98230.94
2022-12-08T04:57:42.683Z,98232.98
2022-12-08T05:00:16.267Z,98228.38
2022-12-08T05:02:47.835Z,98234.07
2022-12-08T05:05:19.621Z,98232.16
2022-12-08T05:07:51.166Z,98229.82
2022-12-08T05:10:23.043Z,98234.09
2022-12-08T05:12:54.514Z,98232.61
2022-12-08T05:15:26.597Z,98234.66
2022-12-08T05:17:58.161Z,98233.14
2022-12-08T05:20:30.256Z,98230.72
2022-12-08T05:23:01.744Z,98230.77
2022-12-08T05:25:33.241Z,98232.91
2022-12-08T05:28:32.868Z,98234.16
2022-12-08T05:30:56.578Z,98231.08
2022-12-08T05:33:28.130Z,98232.05
2022-12-08T05:35:59.780Z,98233.34
2022-12-08T05:38:31.265Z,98229.66
2022-12-08T05:41:02.797Z,98234.63
2022-12-08T05:43:34.681Z,98234.13
2022-12-08T05:46:06.567Z,98232.17
2022-12-08T05:48:38.849Z,98226.91
2022-12-08T05:51:19.762Z,98226.61
2022-12-08T05:53:53.046Z,98224.31
2022-12-08T05:56:25.542Z,98228.80
2022-12-08T05:58:57.024Z,98233.15
2022-12-08T06:01:30.249Z,98247.17
2022-12-08T06:04:03.742Z,98248.37
2022-12-08T06:06:36.966Z,98245.88
2022-12-08T06:09:09.390Z,98253.05
2022-12-08T06:11:40.883Z,98252.92
2022-12-08T06:14:14.817Z,98246.23
2022-12-08T06:16:46.416Z,98243.94
2022-12-08T06:19:18.242Z,98247.29
2022-12-08T06:21:49.914Z,98249.93
2022-12-08T06:24:21.460Z,98251.25
2022-12-08T06:26:54.019Z,98252.27
2022-12-08T06:29:25.948Z,98257.98
2022-12-08T06:31:57.589Z,98263.94
2022-12-08T06:34:29.556Z,98262.45
2022-12-08T06:37:01.061Z,98263.90
2022-12-08T06:39:32.577Z,98267.86
2022-12-08T06:42:21.946Z,98269.16
2022-12-08T06:44:53.996Z,98273.84
2022-12-08T06:47:26.506Z,98276.06
2022-12-08T06:49:58.171Z,98275.65
2022-12-08T06:52:29.893Z,98281.49
2022-12-08T06:55:01.771Z,98284.55
2022-12-08T06:57:33.378Z,98285.19
2022-12-08T07:00:07.178Z,98286.70
2022-12-08T07:02:39.943Z,98283.92
2022-12-08T07:05:11.686Z,98287.73
2022-12-08T07:07:43.372Z,98284.61
2022-12-08T07:10:15.236Z,98288.45
2022-12-08T07:12:47.057Z,98286.48
2022-12-08T07:15:19.042Z,98287.90
2022-12-08T07:17:54.950Z,98286.54
2022-12-08T07:20:29.615Z,98286.26
2022-12-08T07:23:01.315Z,98287.58
2022-12-08T07:25:32.895Z,98284.73
2022-12-08T07:28:08.377Z,98280.96
2022-12-08T07:30:40.343Z,98282.48
2022-12-08T07:33:11.977Z,98283.11
2022-12-08T07:35:49.019Z,98284.69
2022-12-08T07:38:21.129Z,98285.17
2022-12-08T07:40:52.711Z,98280.89
2022-12-08T07:43:25.977Z,98283.78
2022-12-08T07:45:57.778Z,98283.41
2022-12-08T07:48:29.493Z,98283.58
2022-12-08T07:51:05.151Z,98288.40
2022-12-08T07:53:36.778Z,98285.30
2022-12-08T07:56:11.485Z,98283.83
2022-12-08T07:58:45.783Z,98286.44
2022-12-08T08:01:29.578Z,98283.27
2022-12-08T08:04:04.287Z,98285.31
2022-12-08T08:06:37.928Z,98286.26
2022-12-08T08:09:10.510Z,98285.34
2022-12-08T08:11:42.301Z,98284.14
2022-12-08T08:14:13.776Z,98284.17
2022-12-08T08:16:47.615Z,98282.73
2022-12-08T08:19:19.557Z,98284.34
2022-12-08T08:21:51.134Z,98282.60
2022-12-08T08:24:24.112Z,98278.95
2022-12-08T08:26:55.570Z,98277.93
2022-12-08T08:29:27.430Z,98281.30
2022-12-08T08:31:59.036Z,98281.08
2022-12-08T08:34:30.654Z,98278.11
2022-12-08T08:37:02.325Z,98275.95
2022-12-08T08:39:34.027Z,98275.48
2022-12-08T08:42:05.769Z,98273.78
2022-12-08T08:44:39.149Z,98268.02
2022-12-08T08:47:10.949Z,98269.77
2022-12-08T08:49:42.524Z,98269.72
2022-12-08T08:52:14.072Z,98270.29
2022-12-08T08:54:45.685Z,98270.02
2022-12-08T08:57:23.682Z,98266.32
2022-12-08T08:59:57.100Z,98266.61
2022-12-08T09:02:28.707Z,98265.21
2022-12-08T09:05:00.551Z,98269.15
2022-12-08T09:07:32.374Z,98266.53
2022-12-08T09:10:04.690Z,98266.02
2022-12-08T09:12:36.348Z,98267.44
2022-12-08T09:15:09.708Z,98263.81
2022-12-08T09:17:41.230Z,98260.38
2022-12-08T09:20:13.554Z,98263.55
2022-12-08T09:22:45.182Z,98262.71
2022-12-08T09:25:17.053Z,98255.07
2022-12-08T09:27:48.582Z,98255.15
2022-12-08T09:30:20.489Z,98247.80
2022-12-08T09:32:52.015Z,98246.70
2022-12-08T09:35:23.686Z,98241.77
2022-12-08T09:37:55.227Z,98241.05
2022-12-08T09:40:27.733Z,98239.67
2022-12-08T09:43:06.031Z,98234.34
2022-12-08T09:45:39.020Z,98231.84
2022-12-08T09:48:16.290Z,98221.98
2022-12-08T09:50:53.668Z,98221.09
2022-12-08T09:53:35.521Z,98215.67
2022-12-08T09:56:13.497Z,98219.20
2022-12-08T09:58:52.644Z,98215.45
2022-12-08T10:01:27.841Z,98223.11
2022-12-08T10:04:00.035Z,98218.07
2022-12-08T10:06:34.973Z,98215.58
2022-12-08T10:09:23.186Z,98213.17
2022-12-08T10:12:00.628Z,98213.59
2022-12-08T10:14:42.348Z,98211.08
2022-12-08T10:17:22.119Z,98207.83
2022-12-08T10:19:58.415Z,98211.82
2022-12-08T10:22:41.277Z,98207.45
2022-12-08T10:25:20.801Z,98203.35
2022-12-08T10:27:55.675Z,98200.73
2022-12-08T10:30:27.690Z,98197.20
2022-12-08T10:32:59.243Z,98202.33
2022-12-08T10:35:46.916Z,98197.90
2022-12-08T10:38:27.024Z,98195.58
2022-12-08T10:41:05.895Z,98191.27
2022-12-08T10:43:40.681Z,98191.16
2022-12-08T10:46:15.630Z,98187.02
2022-12-08T10:48:56.067Z,98183.69
2022-12-08T10:51:31.850Z,98181.92
2022-12-08T10:54:06.005Z,98180.48
2022-12-08T10:56:37.508Z,98175.81
2022-12-08T10:59:16.143Z,98174.40
2022-12-08T11:01:51.993Z,98176.14
2022-12-08T11:04:31.974Z,98176.38
2022-12-08T11:07:05.843Z,98177.95
2022-12-08T11:09:48.122Z,98177.11
2022-12-08T11:12:21.416Z,98174.73
2022-12-08T11:15:01.061Z,98178.00
2022-12-08T11:17:40.527Z,98178.17
2022-12-08T11:20:24.406Z,98176.88
2022-12-08T11:22:57.326Z,98177.52
2022-12-08T11:25:29.648Z,98181.77
2022-12-08T11:28:02.831Z,98184.20
2022-12-08T11:30:39.017Z,98179.59
2022-12-08T11:33:20.880Z,98179.52
2022-12-08T11:35:58.117Z,98180.38
2022-12-08T11:38:30.972Z,98183.05
2022-12-08T11:41:08.458Z,98181.13
2022-12-08T11:43:51.986Z,98180.83
2022-12-08T11:46:26.844Z,98178.39
2022-12-08T11:49:06.805Z,98173.71
2022-12-08T11:51:44.903Z,98174.77
2022-12-08T11:54:23.812Z,98170.91
2022-12-08T11:56:57.627Z,98173.14
2022-12-08T11:59:32.706Z,98172.48
2022-12-08T12:02:06.350Z,98175.77
2022-12-08T12:04:44.674Z,98176.62
2022-12-08T12:07:52.154Z,98177.62
2022-12-08T12:10:37.030Z,98172.48
2022-12-08T12:13:32.964Z,98173.02
2022-12-08T12:16:30.492Z,98170.77
2022-12-08T12:19:04.561Z,98168.95
2022-12-08T12:21:39.291Z,98169.61
2022-12-08T12:24:20.931Z,98173.05
2022-12-08T12:27:02.095Z,98173.52
2022-12-08T12:29:37.169Z,98165.65
2022-12-08T12:32:11.178Z,98170.89
2022-12-08T12:34:50.973Z,98165.96
2022-12-08T12:37:25.770Z,98168.95
2022-12-08T12:40:04.666Z,98164.29
2022-12-08T12:42:42.115Z,98163.40
2022-12-08T12:45:32.947Z,98162.33
2022-12-08T12:48:25.509Z,98161.15
2022-12-08T12:50:57.312Z,98158.12
2022-12-08T12:53:52.085Z,98158.48
2022-12-08T12:56:52.283Z,98152.76
2022-12-08T12:59:42.635Z,98154.35
2022-12-08T13:02:27.517Z,98159.45
2022-12-08T13:05:04.428Z,98160.92
2022-12-08T13:07:46.771Z,98159.55
2022-12-08T13:10:23.432Z,98163.05
2022-12-08T13:13:17.613Z,98165.29
2022-12-08T13:15:54.596Z,98165.87
2022-12-08T13:18:30.175Z,98162.82
2022-12-08T13:21:12.036Z,98158.91
2022-12-08T13:23:49.366Z,98154.13
2022-12-08T13:26:24.374Z,98157.52
2022-12-08T13:29:23.758Z,98158.71
2022-12-08T13:31:58.113Z,98154.83
2022-12-08T13:34:37.136Z,98158.36
2022-12-08T13:37:26.290Z,98156.14
2022-12-08T13:40:00.427Z,98160.83
2022-12-08T13:42:42.108Z,98162.45
2022-12-08T13:46:04.384Z,98160.41
2022-12-08T13:49:03.321Z,98160.65
2022-12-08T13:57:25.128Z,98166.79
2022-12-08T14:00:00.760Z,98170.04
2022-12-08T14:02:38.634Z,98172.23
2022-12-08T14:05:29.809Z,98168.99
2022-12-08T14:08:08.295Z,98166.85
2022-12-08T14:10:39.952Z,98163.39
2022-12-08T14:13:15.095Z,98166.71
2022-12-08T14:15:46.646Z,98165.16
2022-12-08T14:18:27.010Z,98162.72
2022-12-08T14:21:23.083Z,98162.55
2022-12-08T14:23:54.955Z,98163.88
2022-12-08T14:26:26.500Z,98166.46
2022-12-08T14:28:58.214Z,98162.36
2022-12-08T14:31:30.641Z,98164.38
2022-12-08T14:34:02.371Z,98165.52
2022-12-08T14:36:34.100Z,98162.95
2022-12-08T14:39:06.113Z,98166.93
2022-12-08T14:41:39.219Z,98168.40
2022-12-08T14:44:24.846Z,98167.34
2022-12-08T14:47:10.262Z,98166.79
2022-12-08T14:49:44.543Z,98170.06
2022-12-08T14:52:16.584Z,98168.13
2022-12-08T14:54:50.535Z,98171.77
2022-12-08T14:57:22.472Z,98174.35
2022-12-08T14:59:54.600Z,98166.34
2022-12-08T15:02:34.593Z,98166.59
2022-12-08T15:05:13.497Z,98167.14
2022-12-08T15:07:51.239Z,98165.45
2022-12-08T15:10:29.637Z,98162.51
2022-12-08T15:13:04.697Z,98161.79
2022-12-08T15:15:49.804Z,98156.91
2022-12-08T15:18:29.850Z,98158.02
2022-12-08T15:21:08.039Z,98170.92
2022-12-08T15:23:44.881Z,98164.13
2022-12-08T15:26:22.169Z,98157.90
2022-12-08T15:28:54.520Z,98158.27
2022-12-08T15:31:26.138Z,98155.77
2022-12-08T15:33:57.806Z,98155.82
2022-12-08T15:36:29.357Z,98155.69
2022-12-08T15:39:01.060Z,98161.16
2022-12-08T15:41:32.644Z,98156.71
2022-12-08T15:44:04.294Z,98159.96
2022-12-08T15:46:36.103Z,98157.97
2022-12-08T15:49:07.821Z,98153.98
2022-12-08T15:51:39.279Z,98157.54
2022-12-08T15:54:10.769Z,98153.26
2022-12-08T15:57:17.386Z,98147.30
2022-12-08T15:59:37.860Z,98147.30
2022-12-08T16:02:14.532Z,98142.84
2022-12-08T16:07:43.299Z,98146.67
2022-12-08T16:10:19.141Z,98140.35
2022-12-08T16:16:01.591Z,98140.11
2022-12-08T16:18:36.906Z,98137.80
2022-12-08T16:21:31.644Z,98131.61
2022-12-08T16:24:06.078Z,98131.67
2022-12-08T16:29:32.637Z,98135.29
2022-12-08T16:32:04.216Z,98136.45
2022-12-08T16:34:35.841Z,98135.43
2022-12-08T16:37:07.424Z,98134.02
2022-12-08T16:39:45.455Z,98135.96
2022-12-08T16:42:38.254Z,98132.15
2022-12-08T16:45:13.108Z,98129.42
2022-12-08T16:47:46.871Z,98128.32
2022-12-08T16:50:21.001Z,98135.33
2022-12-08T16:52:57.420Z,98132.65
2022-12-08T16:55:29.495Z,98131.43
2022-12-08T16:58:01.476Z,98128.82
2022-12-08T17:00:36.694Z,98135.27
2022-12-08T17:03:09.386Z,98127.77
2022-12-08T17:05:53.726Z,98128.10
2022-12-08T17:08:26.026Z,98124.14
2022-12-08T17:11:08.221Z,98122.79
2022-12-08T17:13:42.404Z,98126.42
2022-12-08T17:16:19.257Z,98123.04
2022-12-08T17:18:50.928Z,98122.70
2022-12-08T17:21:23.039Z,98125.02
2022-12-08T17:23:54.977Z,98126.71
2022-12-08T17:26:26.647Z,98127.91
2022-12-08T17:29:01.029Z,98130.42
2022-12-08T17:31:34.007Z,98131.14
2022-12-08T17:34:10.152Z,98130.35
2022-12-08T17:36:41.717Z,98128.27
2022-12-08T17:39:18.343Z,98130.54
2022-12-08T17:41:50.701Z,98129.80
2022-12-08T17:44:22.928Z,98128.39
2022-12-08T17:46:54.469Z,98126.48
2022-12-08T17:49:29.577Z,98126.11
2022-12-08T17:52:03.249Z,98128.67
2022-12-08T17:54:33.695Z,98130.59
2022-12-08T17:57:05.613Z,98122.55
2022-12-08T17:59:37.134Z,98122.73
2022-12-08T18:02:11.206Z,98122.49
2022-12-08T18:04:42.960Z,98116.19
2022-12-08T18:07:14.473Z,98116.84
2022-12-08T18:09:46.035Z,98117.08
2022-12-08T18:12:23.235Z,98112.07
2022-12-08T18:14:55.306Z,98109.64
2022-12-08T18:17:26.836Z,98113.33
2022-12-08T18:19:58.531Z,98111.98
2022-12-08T18:22:30.106Z,98107.23
2022-12-08T18:25:01.828Z,98106.36
2022-12-08T18:27:37.291Z,98101.70
2022-12-08T18:30:18.116Z,98097.75
2022-12-08T18:32:54.195Z,98096.27
2022-12-08T18:35:29.702Z,98097.08
2022-12-08T18:38:01.645Z,98094.94
2022-12-08T18:40:33.252Z,98094.59
2022-12-08T18:43:04.903Z,98089.44
2022-12-08T18:45:39.652Z,98086.10
2022-12-08T18:48:11.467Z,98083.98
2022-12-08T18:50:44.900Z,98085.94
2022-12-08T18:53:16.410Z,98087.39
2022-12-08T18:55:50.868Z,98085.77
2022-12-08T18:58:22.403Z,98085.15
2022-12-08T19:00:53.969Z,98087.98
2022-12-08T19:03:25.762Z,98090.35
2022-12-08T19:06:06.416Z,98092.55
2022-12-08T19:08:37.973Z,98090.62
2022-12-08T19:11:20.114Z,98088.34
2022-12-08T19:13:51.968Z,98086.03
2022-12-08T19:16:24.278Z,98090.16
2022-12-08T19:18:55.969Z,98088.37
2022-12-08T19:21:28.457Z,98084.90
2022-12-08T19:24:00.423Z,98084.52
2022-12-08T19:26:31.975Z,98082.59
2022-12-08T19:29:03.654Z,98084.86
2022-12-08T19:31:35.218Z,98087.58
2022-12-08T19:34:06.997Z,98091.30
2022-12-08T19:36:42.478Z,98091.90
2022-12-08T19:39:35.990Z,98091.02
2022-12-08T19:42:30.855Z,98085.48
2022-12-08T19:45:07.415Z,98088.42
2022-12-08T19:47:39.408Z,98091.45
2022-12-08T19:50:31.473Z,98093.27
2022-12-08T19:53:04.809Z,98086.88
2022-12-08T19:55:37.075Z,98086.83
2022-12-08T19:58:09.626Z,98084.36
2022-12-08T20:00:42.191Z,98081.84
2022-12-08T20:03:17.667Z,98079.30
2022-12-08T20:05:50.816Z,98076.23
2022-12-08T20:08:22.372Z,98075.13
2022-12-08T20:10:56.116Z,98073.72
2022-12-08T20:13:45.893Z,98076.90
2022-12-08T20:16:18.492Z,98078.73
2022-12-08T20:18:50.151Z,98085.38
2022-12-08T20:21:22.027Z,98083.48
2022-12-08T20:23:53.566Z,98081.44
2022-12-08T20:26:25.638Z,98078.16
2022-12-08T20:28:57.226Z,98081.18
2022-12-08T20:31:31.489Z,98081.16
2022-12-08T20:34:03.228Z,98083.34
2022-12-08T20:36:34.863Z,98080.63
2022-12-08T20:39:06.785Z,98080.45
2022-12-08T20:41:39.395Z,98079.98
2022-12-08T20:44:11.489Z,98079.71
2022-12-08T20:46:49.091Z,98081.48
2022-12-08T20:49:21.201Z,98083.67
2022-12-08T20:51:52.894Z,98081.51
2022-12-08T20:54:24.651Z,98079.86
2022-12-08T20:56:56.386Z,98084.46
2022-12-08T20:59:28.309Z,98086.93
2022-12-08T21:02:01.288Z,98086.30
2022-12-08T21:04:33.203Z,98088.19
2022-12-08T21:07:04.858Z,98086.86
2022-12-08T21:09:36.885Z,98084.04
2022-12-08T21:12:09.409Z,98081.86
2022-12-08T21:14:42.473Z,98078.70
2022-12-08T21:17:14.184Z,98078.15
2022-12-08T21:19:45.952Z,98082.36
2022-12-08T21:22:17.587Z,98080.20
2022-12-08T21:24:49.617Z,98079.04
2022-12-08T21:27:21.324Z,98077.98
2022-12-08T21:29:52.935Z,98075.50
2022-12-08T21:32:29.946Z,98078.15
2022-12-08T21:35:02.322Z,98080.80
2022-12-08T21:37:34.416Z,98081.98
2022-12-08T21:40:08.352Z,98080.40
2022-12-08T21:42:46.413Z,98081.00
2022-12-08T21:45:20.041Z,98081.73
2022-12-08T21:47:52.103Z,98078.64
2022-12-08T21:50:24.426Z,98074.44
2022-12-08T21:52:55.957Z,98071.45
2022-12-08T21:55:27.740Z,98065.16
2022-12-08T21:58:00.987Z,98068.58
2022-12-08T22:00:33.032Z,98068.40
2022-12-08T22:03:05.104Z,98062.84
2022-12-08T22:05:37.908Z,98062.18
2022-12-08T22:08:09.831Z,98063.63
2022-12-08T22:10:49.320Z,98061.14
2022-12-08T22:13:20.838Z,98063.34
2022-12-08T22:15:59.876Z,98058.34
2022-12-08T22:18:31.901Z,98057.30
2022-12-08T22:21:04.073Z,98055.43
2022-12-08T22:23:35.742Z,98061.13
2022-12-08T22:26:08.690Z,98055.05
2022-12-08T22:28:42.530Z,98060.06
2022-12-08T22:31:14.336Z,98054.78
2022-12-08T22:33:46.946Z,98056.05
2022-12-08T22:36:21.384Z,98061.11
2022-12-08T22:38:54.700Z,98053.92
2022-12-08T22:41:26.435Z,98050.71
2022-12-08T22:43:58.171Z,98050.20
2022-12-08T22:46:30.170Z,98052.36
2022-12-08T22:49:02.015Z,98050.55
2022-12-08T22:51:36.116Z,98049.35
2022-12-08T22:54:08.007Z,98047.28
2022-12-08T22:56:39.898Z,98048.25
2022-12-08T22:59:11.631Z,98046.32
2022-12-08T23:01:43.348Z,98052.67
2022-12-08T23:04:17.992Z,98051.30
2022-12-08T23:06:51.177Z,98053.21
2022-12-08T23:09:23.632Z,98053.25
2022-12-08T23:11:56.241Z,98054.52
2022-12-08T23:14:28.049Z,98050.63
2022-12-08T23:16:59.705Z,98049.40
2022-12-08T23:19:31.437Z,98044.29
2022-12-08T23:22:03.188Z,98042.25
2022-12-08T23:24:34.977Z,98042.91
2022-12-08T23:27:06.933Z,98045.88
2022-12-08T23:29:39.364Z,98038.11
2022-12-08T23:32:11.234Z,98041.84
2022-12-08T23:34:43.101Z,98037.13
2022-12-08T23:37:15.000Z,98035.06
2022-12-08T23:39:46.899Z,98034.14
2022-12-08T23:42:18.547Z,98034.34
2022-12-08T23:44:50.290Z,98033.60
2022-12-08T23:47:22.036Z,98036.92
2022-12-08T23:49:53.872Z,98034.09
2022-12-08T23:52:25.455Z,98034.55
2022-12-08T23:54:57.128Z,98036.27
2022-12-08T23:57:29.111Z,98032.75
